Time;durP1;ratioP1;P1;durP2;ratioP2;P2;SDS_P1;SDS_P2;PMS_P1;PMS_P2;Temp;Humidity;BMP_temperature;BMP_pressure;BME280_temperature;BME280_humidity;BME280_pressure;Samples;Min_cycle;Max_cycle;Signal;HPM_P1;HPM_P2
2021/08/29 00:02:08;;;;;;;12.60;6.95;;;9.60;95.40;;;;;;5062551;28;20377;-71
2021/08/29 00:04:34;;;;;;;10.38;6.70;;;9.50;95.50;;;;;;5064150;28;20415;-70
2021/08/29 00:06:59;;;;;;;13.35;7.22;;;9.50;95.30;;;;;;5061998;28;20029;-71
2021/08/29 00:09:25;;;;;;;9.52;6.45;;;9.50;95.10;;;;;;5057357;28;20025;-71
2021/08/29 00:11:51;;;;;;;13.32;6.85;;;9.60;95.10;;;;;;5069528;28;20098;-71
2021/08/29 00:14:16;;;;;;;12.95;7.53;;;9.60;95.20;;;;;;5071873;28;20040;-72
2021/08/29 00:16:42;;;;;;;10.68;5.93;;;9.50;95.30;;;;;;5070938;28;20032;-71
2021/08/29 00:19:08;;;;;;;11.93;6.68;;;9.50;95.30;;;;;;5070143;28;20017;-71
2021/08/29 00:21:33;;;;;;;9.20;5.80;;;9.60;95.10;;;;;;5070180;28;20035;-71
2021/08/29 00:23:59;;;;;;;12.05;6.88;;;9.60;95.00;;;;;;5069870;28;20036;-71
2021/08/29 00:26:24;;;;;;;8.70;5.88;;;9.60;95.10;;;;;;5070121;28;20036;-71
2021/08/29 00:28:50;;;;;;;12.25;7.22;;;9.60;95.30;;;;;;5069646;28;20433;-71
2021/08/29 00:31:17;;;;;;;9.32;5.88;;;9.60;95.20;;;;;;5070281;28;20448;-71
2021/08/29 00:33:42;;;;;;;10.40;6.53;;;9.60;95.00;;;;;;5069805;28;20062;-71
2021/08/29 00:36:10;;;;;;;13.15;6.80;;;9.50;95.40;;;;;;5069505;28;20028;-71
2021/08/29 00:38:36;;;;;;;12.90;7.68;;;9.50;95.20;;;;;;5068856;28;20040;-71
2021/08/29 00:41:06;;;;;;;11.45;7.25;;;9.50;95.10;;;;;;5069204;28;20029;-71
2021/08/29 00:43:31;;;;;;;13.75;8.30;;;9.50;95.10;;;;;;5069812;28;20098;-69
2021/08/29 00:45:57;;;;;;;13.57;8.18;;;9.60;94.80;;;;;;5069377;28;20646;-70
2021/08/29 00:48:23;;;;;;;12.45;7.07;;;9.60;95.00;;;;;;5070159;28;20480;-71
2021/08/29 00:50:49;;;;;;;15.10;8.10;;;9.60;95.00;;;;;;5070361;28;20443;-71
2021/08/29 00:53:19;;;;;;;16.08;8.20;;;9.70;94.90;;;;;;5070332;28;20089;-71
2021/08/29 00:55:49;;;;;;;19.08;7.93;;;9.70;94.80;;;;;;5070162;28;21431;-71
2021/08/29 00:58:15;;;;;;;15.13;7.90;;;9.70;94.90;;;;;;5069986;28;20035;-71
2021/08/29 01:00:42;;;;;;;11.65;6.80;;;9.80;94.80;;;;;;5070795;28;20037;-71
2021/08/29 01:03:19;;;;;;;12.00;6.18;;;9.80;94.80;;;;;;5067514;28;20033;-71
2021/08/29 01:06:08;;;;;;;10.73;6.53;;;9.90;94.90;;;;;;5069626;28;20429;-70
2021/08/29 01:08:39;;;;;;;11.30;7.03;;;9.90;94.60;;;;;;5069330;28;20421;-71
2021/08/29 01:11:10;;;;;;;11.63;7.20;;;10.00;94.60;;;;;;5069561;28;20052;-71
2021/08/29 01:13:46;;;;;;;10.70;6.80;;;10.00;94.80;;;;;;5069971;28;20040;-71
2021/08/29 01:16:16;;;;;;;10.20;6.38;;;10.00;95.00;;;;;;5070282;28;20048;-71
2021/08/29 01:18:43;;;;;;;10.13;6.40;;;10.00;95.00;;;;;;5073526;28;20024;-71
2021/08/29 01:21:11;;;;;;;9.52;6.50;;;10.00;95.10;;;;;;5074230;28;20029;-70
2021/08/29 01:23:43;;;;;;;9.98;6.25;;;10.00;95.10;;;;;;5073313;28;20020;-70
2021/08/29 01:26:28;;;;;;;9.00;6.03;;;10.00;94.80;;;;;;5073590;28;20024;-70
2021/08/29 01:28:56;;;;;;;8.68;6.07;;;10.00;95.00;;;;;;5072567;28;20037;-70
2021/08/29 01:31:26;;;;;;;8.77;5.80;;;10.00;95.10;;;;;;5072143;28;20024;-70
2021/08/29 01:33:52;;;;;;;10.05;5.65;;;10.00;94.90;;;;;;5073341;28;20032;-72
2021/08/29 01:36:20;;;;;;;11.00;6.40;;;10.00;94.80;;;;;;5072920;28;20032;-71
2021/08/29 01:38:47;;;;;;;9.30;5.75;;;10.10;94.80;;;;;;5071821;28;20013;-71
2021/08/29 01:41:15;;;;;;;9.88;5.55;;;10.10;95.00;;;;;;5073131;28;20047;-71
2021/08/29 01:43:42;;;;;;;10.65;6.07;;;10.10;94.90;;;;;;5071421;28;20032;-72
2021/08/29 01:46:08;;;;;;;8.10;5.20;;;10.10;94.90;;;;;;5073125;28;20115;-72
2021/08/29 01:48:40;;;;;;;10.18;6.53;;;10.20;94.60;;;;;;5072865;28;20036;-72
2021/08/29 01:51:07;;;;;;;9.10;5.95;;;10.20;95.00;;;;;;5071584;28;20085;-71
2021/08/29 01:53:34;;;;;;;14.52;6.03;;;10.20;95.10;;;;;;5072583;28;20032;-70
2021/08/29 01:55:59;;;;;;;10.13;6.75;;;10.20;95.00;;;;;;5071586;28;20029;-71
2021/08/29 01:58:26;;;;;;;13.10;7.05;;;10.20;95.00;;;;;;5069328;28;20029;-72
2021/08/29 02:00:58;;;;;;;9.90;6.07;;;10.20;94.90;;;;;;5073174;28;20036;-71
2021/08/29 02:03:25;;;;;;;12.18;6.80;;;10.20;94.90;;;;;;5071908;28;20409;-71
2021/08/29 02:05:57;;;;;;;11.45;6.10;;;10.20;95.10;;;;;;5072480;28;20047;-72
2021/08/29 02:08:25;;;;;;;11.77;6.65;;;10.20;94.70;;;;;;5071597;28;20418;-71
2021/08/29 02:10:58;;;;;;;10.32;6.45;;;10.20;95.00;;;;;;5071079;28;20472;-71
2021/08/29 02:13:26;;;;;;;9.13;6.17;;;10.10;95.00;;;;;;5071806;28;20380;-72
2021/08/29 02:16:02;;;;;;;9.48;5.95;;;10.10;94.90;;;;;;5072225;28;20368;-72
2021/08/29 02:18:33;;;;;;;11.27;6.88;;;10.10;94.90;;;;;;5072996;28;20039;-72
2021/08/29 02:21:00;;;;;;;11.50;7.00;;;10.10;95.10;;;;;;5072439;28;20111;-71
2021/08/29 02:23:29;;;;;;;11.45;7.30;;;10.10;95.00;;;;;;5071231;28;20051;-71
2021/08/29 02:26:04;;;;;;;11.63;6.72;;;10.10;94.90;;;;;;5071456;28;20146;-71
2021/08/29 02:28:31;;;;;;;10.15;6.05;;;10.10;94.90;;;;;;5071893;28;20066;-71
2021/08/29 02:30:57;;;;;;;11.35;7.03;;;10.10;94.90;;;;;;5072372;28;20742;-72
2021/08/29 02:33:23;;;;;;;11.20;6.70;;;10.10;94.60;;;;;;5072221;28;20115;-72
2021/08/29 02:35:51;;;;;;;10.50;6.63;;;10.20;94.70;;;;;;5072308;28;20025;-71
2021/08/29 02:38:18;;;;;;;9.90;6.28;;;10.20;94.90;;;;;;5071855;28;20143;-71
2021/08/29 02:40:44;;;;;;;9.82;6.45;;;10.20;95.00;;;;;;5071051;28;20035;-71
2021/08/29 02:43:12;;;;;;;12.57;7.13;;;10.10;94.90;;;;;;5071278;28;20052;-71
2021/08/29 02:45:41;;;;;;;9.80;6.55;;;10.20;94.50;;;;;;5070866;28;20027;-71
2021/08/29 02:48:07;;;;;;;15.15;7.00;;;10.30;94.70;;;;;;5071676;28;20075;-71
2021/08/29 02:50:33;;;;;;;13.50;7.20;;;10.30;94.40;;;;;;5071011;28;20081;-71
2021/08/29 02:53:00;;;;;;;10.77;7.20;;;10.40;94.50;;;;;;5071283;28;20108;-71
2021/08/29 02:55:26;;;;;;;10.77;7.45;;;10.40;94.80;;;;;;5072754;28;20029;-71
2021/08/29 02:58:01;;;;;;;10.20;6.57;;;10.40;94.70;;;;;;5075071;28;20036;-71
2021/08/29 03:00:28;;;;;;;12.25;6.20;;;10.40;94.70;;;;;;5071218;28;20021;-71
2021/08/29 03:02:54;;;;;;;10.77;6.22;;;10.40;94.60;;;;;;5070967;28;20025;-71
2021/08/29 03:05:20;;;;;;;11.30;6.50;;;10.50;94.70;;;;;;5071680;28;20067;-71
2021/08/29 03:07:46;;;;;;;9.95;5.72;;;10.50;94.80;;;;;;5071674;28;20074;-71
2021/08/29 03:10:12;;;;;;;8.82;6.43;;;10.50;94.50;;;;;;5071601;28;20029;-71
2021/08/29 03:12:42;;;;;;;9.45;6.28;;;10.50;95.00;;;;;;5071029;28;20028;-71
2021/08/29 03:15:08;;;;;;;12.07;6.50;;;10.40;94.50;;;;;;5070704;28;20312;-71
2021/08/29 03:17:34;;;;;;;11.25;7.03;;;10.50;94.70;;;;;;5071767;28;20102;-72
2021/08/29 03:20:02;;;;;;;10.80;6.82;;;10.50;94.90;;;;;;5070525;28;20040;-70
2021/08/29 03:22:28;;;;;;;10.38;6.60;;;10.50;94.70;;;;;;5071421;28;20033;-71
2021/08/29 03:24:54;;;;;;;10.02;5.72;;;10.60;94.70;;;;;;5070928;28;20039;-72
2021/08/29 03:27:20;;;;;;;11.88;6.68;;;10.60;94.90;;;;;;5071875;28;20029;-72
2021/08/29 03:29:46;;;;;;;8.55;6.28;;;10.60;94.90;;;;;;5071898;28;20040;-71
2021/08/29 03:32:11;;;;;;;10.77;6.32;;;10.60;94.80;;;;;;5070469;28;20035;-71
2021/08/29 03:34:38;;;;;;;9.25;6.18;;;10.60;94.80;;;;;;5070347;28;20119;-71
2021/08/29 03:37:05;;;;;;;11.93;7.60;;;10.70;94.90;;;;;;5070789;28;20048;-71
2021/08/29 03:39:31;;;;;;;11.65;6.93;;;10.70;94.80;;;;;;5071586;28;20425;-71
2021/08/29 03:41:58;;;;;;;11.30;6.95;;;10.70;95.00;;;;;;5071173;28;20036;-71
2021/08/29 03:44:25;;;;;;;8.95;5.72;;;10.70;95.00;;;;;;5071118;28;20425;-72
2021/08/29 03:46:51;;;;;;;11.60;7.20;;;10.70;94.80;;;;;;5070354;28;20054;-72
2021/08/29 03:49:18;;;;;;;16.20;9.18;;;10.70;94.80;;;;;;5070903;28;20085;-71
2021/08/29 03:51:46;;;;;;;13.70;8.43;;;10.70;94.90;;;;;;5070903;28;20044;-72
2021/08/29 03:54:13;;;;;;;11.45;8.32;;;10.70;94.80;;;;;;5069727;28;20055;-72
2021/08/29 03:56:42;;;;;;;15.43;8.27;;;10.70;95.10;;;;;;5069901;28;20439;-72
2021/08/29 03:59:08;;;;;;;11.68;8.00;;;10.70;95.00;;;;;;5071950;28;20020;-72
2021/08/29 04:01:34;;;;;;;14.88;8.40;;;10.70;94.80;;;;;;5071012;28;20436;-72
2021/08/29 04:04:00;;;;;;;12.70;9.30;;;10.70;94.90;;;;;;5070984;28;20077;-72
2021/08/29 04:06:28;;;;;;;12.25;7.15;;;10.70;95.10;;;;;;5070240;28;20135;-72
2021/08/29 04:08:55;;;;;;;14.38;9.27;;;10.70;95.10;;;;;;5070032;28;20433;-73
2021/08/29 04:11:28;;;;;;;13.93;8.32;;;10.70;95.40;;;;;;5070223;28;20039;-73
2021/08/29 04:13:55;;;;;;;16.63;7.70;;;10.60;95.20;;;;;;5068757;28;20040;-73
2021/08/29 04:16:22;;;;;;;14.82;8.65;;;10.60;95.40;;;;;;5070224;28;20039;-73
2021/08/29 04:18:51;;;;;;;12.10;7.93;;;10.60;95.40;;;;;;5071435;28;20028;-72
2021/08/29 04:21:27;;;;;;;12.57;7.78;;;10.60;95.50;;;;;;5070422;28;20025;-72
2021/08/29 04:23:56;;;;;;;12.45;8.15;;;10.60;95.50;;;;;;5069395;28;20485;-73
2021/08/29 04:26:25;;;;;;;12.68;8.27;;;10.50;95.30;;;;;;5070997;28;20711;-72
2021/08/29 04:28:52;;;;;;;12.60;7.55;;;10.60;94.90;;;;;;5071952;28;20426;-74
2021/08/29 04:31:31;;;;;;;11.60;7.50;;;10.60;95.00;;;;;;5070799;28;20075;-74
2021/08/29 04:34:04;;;;;;;14.52;8.50;;;10.70;95.00;;;;;;5069312;28;20056;-74
2021/08/29 04:36:30;;;;;;;11.88;8.07;;;10.70;95.10;;;;;;5069319;28;20060;-75
2021/08/29 04:38:59;;;;;;;37.90;26.05;;;10.70;95.40;;;;;;5068761;28;20017;-73
2021/08/29 04:41:24;;;;;;;16.25;9.88;;;10.60;95.40;;;;;;5070700;28;20025;-74
2021/08/29 04:43:50;;;;;;;13.35;8.93;;;10.60;95.50;;;;;;5070779;28;20077;-74
2021/08/29 04:46:16;;;;;;;15.88;9.43;;;10.60;95.50;;;;;;5070563;28;20032;-74
2021/08/29 04:48:44;;;;;;;14.25;9.10;;;10.60;95.50;;;;;;5069882;28;20035;-73
2021/08/29 04:51:10;;;;;;;13.52;8.75;;;10.60;95.30;;;;;;5070365;28;20078;-74
2021/08/29 04:53:36;;;;;;;15.13;9.52;;;10.70;95.00;;;;;;5072840;28;20040;-74
2021/08/29 04:56:01;;;;;;;18.92;10.55;;;10.70;95.40;;;;;;5073956;28;20033;-73
2021/08/29 04:58:27;;;;;;;13.07;8.32;;;10.60;95.90;;;;;;5074906;28;20119;-74
2021/08/29 05:00:52;;;;;;;11.50;7.15;;;10.60;95.50;;;;;;5072327;28;20440;-73
2021/08/29 05:03:18;;;;;;;11.07;7.20;;;10.60;95.30;;;;;;5074063;28;20040;-73
2021/08/29 05:05:44;;;;;;;10.45;7.32;;;10.70;95.20;;;;;;5073948;28;20040;-74
2021/08/29 05:08:12;;;;;;;15.77;8.25;;;10.70;95.60;;;;;;5078023;28;20488;-74
2021/08/29 05:10:38;;;;;;;12.68;7.50;;;10.80;95.50;;;;;;5072023;28;20344;-73
2021/08/29 05:13:04;;;;;;;45.78;31.02;;;10.70;96.00;;;;;;5074081;28;20128;-74
2021/08/29 05:15:30;;;;;;;23.80;15.88;;;10.70;95.70;;;;;;5072697;28;20425;-74
2021/08/29 05:17:56;;;;;;;21.25;13.93;;;10.80;95.80;;;;;;5064503;28;20040;-74
2021/08/29 05:20:21;;;;;;;19.95;12.40;;;10.80;95.20;;;;;;5078827;28;20036;-74
2021/08/29 05:22:47;;;;;;;17.50;10.43;;;10.80;95.50;;;;;;5079005;28;20406;-74
2021/08/29 05:25:13;;;;;;;9.98;7.20;;;10.80;95.70;;;;;;5076443;28;20035;-74
2021/08/29 05:27:38;;;;;;;9.93;6.57;;;10.90;95.20;;;;;;5078940;28;20387;-74
2021/08/29 05:30:05;;;;;;;13.05;7.63;;;10.90;95.40;;;;;;5077491;28;20753;-74
2021/08/29 05:32:30;;;;;;;10.05;6.57;;;10.90;95.50;;;;;;5077915;28;20025;-74
2021/08/29 05:34:56;;;;;;;11.00;7.53;;;10.90;95.60;;;;;;5078195;28;20475;-74
2021/08/29 05:37:22;;;;;;;11.35;7.20;;;10.90;95.50;;;;;;5078291;28;20025;-74
2021/08/29 05:39:47;;;;;;;10.68;7.45;;;10.90;95.80;;;;;;5075427;28;20310;-74
2021/08/29 05:42:13;;;;;;;11.02;7.65;;;10.90;95.80;;;;;;5076579;28;20298;-74
2021/08/29 05:44:38;;;;;;;9.60;6.47;;;10.90;95.70;;;;;;5058265;28;20025;-74
2021/08/29 05:47:04;;;;;;;11.13;7.10;;;11.00;95.40;;;;;;5074027;28;20039;-74
2021/08/29 05:49:30;;;;;;;9.18;6.15;;;11.00;95.90;;;;;;5078323;28;20032;-74
2021/08/29 05:51:55;;;;;;;11.05;7.68;;;10.90;95.90;;;;;;5076286;28;20021;-75
2021/08/29 05:54:21;;;;;;;12.45;8.50;;;10.90;96.10;;;;;;5075989;28;20028;-75
2021/08/29 05:56:47;;;;;;;12.00;8.10;;;10.90;96.50;;;;;;5077632;28;20325;-75
2021/08/29 05:59:12;;;;;;;11.32;7.93;;;10.90;96.60;;;;;;5078003;28;20032;-75
2021/08/29 06:01:38;;;;;;;13.20;8.38;;;10.90;96.30;;;;;;5077602;28;20111;-75
2021/08/29 06:04:04;;;;;;;11.85;6.88;;;10.90;96.50;;;;;;5075681;28;20033;-76
2021/08/29 06:06:33;;;;;;;11.85;7.15;;;10.90;96.50;;;;;;5077454;28;20036;-76
2021/08/29 06:08:59;;;;;;;11.90;6.15;;;10.90;96.50;;;;;;5059870;28;20037;-76
2021/08/29 06:11:27;;;;;;;8.85;5.88;;;10.90;96.30;;;;;;5076735;28;20042;-77
2021/08/29 06:13:53;;;;;;;9.30;5.47;;;10.90;96.20;;;;;;5076391;28;20038;-77
2021/08/29 06:16:19;;;;;;;7.85;4.82;;;11.00;96.20;;;;;;5077768;28;20021;-77
2021/08/29 06:18:44;;;;;;;7.63;4.35;;;11.00;96.10;;;;;;5077278;28;20025;-77
2021/08/29 06:21:10;;;;;;;7.45;4.22;;;11.00;96.20;;;;;;5075573;28;20024;-76
2021/08/29 06:23:36;;;;;;;5.70;3.78;;;11.00;96.40;;;;;;5066147;28;20028;-76
2021/08/29 06:26:01;;;;;;;5.38;2.85;;;11.10;96.60;;;;;;5077206;28;20107;-76
2021/08/29 06:28:27;;;;;;;6.97;3.95;;;11.10;96.70;;;;;;5077316;28;20039;-76
2021/08/29 06:30:52;;;;;;;6.05;3.42;;;11.10;97.00;;;;;;5077371;28;20028;-76
2021/08/29 06:33:18;;;;;;;6.25;3.90;;;11.10;96.90;;;;;;5076780;28;20353;-76
2021/08/29 06:35:44;;;;;;;6.65;4.32;;;11.10;97.20;;;;;;5076045;28;20424;-76
2021/08/29 06:38:09;;;;;;;6.22;3.63;;;11.10;97.10;;;;;;5071683;28;20058;-75
2021/08/29 06:40:35;;;;;;;6.13;3.50;;;11.10;97.00;;;;;;5058959;28;20393;-75
2021/08/29 06:43:01;;;;;;;4.35;2.55;;;11.10;96.90;;;;;;5064510;28;20037;-75
2021/08/29 06:45:26;;;;;;;4.55;2.22;;;11.20;97.30;;;;;;5057368;28;20025;-75
2021/08/29 06:47:52;;;;;;;4.28;2.05;;;11.20;97.70;;;;;;5059275;28;20021;-75
2021/08/29 06:50:18;;;;;;;3.67;1.88;;;11.30;97.60;;;;;;5057012;28;20473;-75
2021/08/29 06:52:43;;;;;;;3.92;2.00;;;11.40;98.00;;;;;;5066687;28;20440;-75
2021/08/29 06:55:09;;;;;;;4.82;1.77;;;11.40;98.00;;;;;;5074527;28;20356;-75
2021/08/29 06:57:35;;;;;;;4.47;2.08;;;11.50;98.00;;;;;;5075040;28;20055;-75
2021/08/29 07:00:00;;;;;;;3.30;1.90;;;11.50;98.00;;;;;;5071314;28;20037;-74
2021/08/29 07:02:28;;;;;;;3.72;1.50;;;11.50;98.00;;;;;;5061564;28;20016;-74
2021/08/29 07:04:53;;;;;;;4.22;1.83;;;11.50;98.00;;;;;;5068627;28;20056;-74
2021/08/29 07:07:19;;;;;;;3.35;1.80;;;11.60;98.00;;;;;;5064489;28;20029;-75
2021/08/29 07:09:44;;;;;;;4.78;2.08;;;11.70;98.00;;;;;;5070884;28;20032;-74
2021/08/29 07:12:11;;;;;;;4.00;1.80;;;11.80;98.00;;;;;;5074134;28;20408;-74
2021/08/29 07:14:38;;;;;;;5.22;2.17;;;11.80;98.00;;;;;;5059876;28;20032;-73
2021/08/29 07:17:05;;;;;;;5.28;2.33;;;11.70;98.00;;;;;;5056831;28;20033;-74
2021/08/29 07:19:30;;;;;;;3.80;2.25;;;11.70;98.00;;;;;;5056682;28;20039;-73
2021/08/29 07:21:59;;;;;;;3.95;2.20;;;11.60;98.00;;;;;;5064570;28;20099;-74
2021/08/29 07:24:25;;;;;;;2.28;1.25;;;11.70;98.00;;;;;;5074122;28;20021;-74
2021/08/29 07:26:53;;;;;;;3.03;1.70;;;11.70;98.00;;;;;;5056484;28;20055;-74
2021/08/29 07:29:19;;;;;;;2.80;1.40;;;11.60;98.00;;;;;;5056313;28;20035;-74
2021/08/29 07:31:44;;;;;;;2.80;1.48;;;11.50;98.00;;;;;;5074907;28;20360;-74
2021/08/29 07:34:10;;;;;;;3.50;1.90;;;11.50;98.00;;;;;;5076052;28;20025;-75
2021/08/29 07:36:36;;;;;;;4.78;2.53;;;11.60;98.00;;;;;;5058143;28;20120;-75
2021/08/29 07:39:01;;;;;;;4.75;2.65;;;11.60;98.00;;;;;;5060004;28;20025;-74
2021/08/29 07:41:27;;;;;;;5.95;3.30;;;11.70;98.00;;;;;;5056192;28;20313;-74
2021/08/29 07:43:52;;;;;;;4.50;2.67;;;11.70;98.00;;;;;;5069943;28;20028;-74
2021/08/29 07:46:24;;;;;;;3.10;2.00;;;11.60;98.00;;;;;;5066605;28;20025;-74
2021/08/29 07:48:49;;;;;;;4.70;1.50;;;11.60;98.00;;;;;;5056471;28;20025;-74
2021/08/29 07:51:15;;;;;;;3.63;2.00;;;11.70;98.00;;;;;;5056237;28;20044;-74
2021/08/29 07:53:41;;;;;;;4.60;2.35;;;11.70;98.00;;;;;;5054709;28;20024;-74
2021/08/29 07:56:06;;;;;;;4.53;2.35;;;11.80;98.00;;;;;;5063224;28;20322;-74
2021/08/29 07:58:32;;;;;;;6.82;2.85;;;11.80;98.00;;;;;;5054617;28;20025;-74
2021/08/29 08:00:57;;;;;;;4.45;2.15;;;11.80;98.00;;;;;;5059291;28;20039;-74
2021/08/29 08:03:23;;;;;;;4.72;2.50;;;11.90;98.00;;;;;;5075624;28;20021;-74
2021/08/29 08:05:49;;;;;;;5.45;3.30;;;11.80;98.00;;;;;;5058574;28;20049;-73
2021/08/29 08:08:14;;;;;;;3.65;2.08;;;11.90;98.00;;;;;;5075232;28;20429;-74
2021/08/29 08:10:40;;;;;;;3.20;1.80;;;11.80;98.00;;;;;;5073453;28;20130;-74
2021/08/29 08:13:06;;;;;;;3.40;1.92;;;11.80;98.00;;;;;;5075755;28;20379;-74
2021/08/29 08:15:31;;;;;;;3.28;1.90;;;11.80;98.00;;;;;;5068994;28;20421;-74
2021/08/29 08:17:57;;;;;;;4.15;2.13;;;11.90;98.00;;;;;;5069207;28;20118;-73
2021/08/29 08:20:23;;;;;;;5.47;2.60;;;11.90;98.00;;;;;;5062370;28;20064;-74
2021/08/29 08:22:48;;;;;;;3.75;2.08;;;11.90;98.00;;;;;;5065900;28;20060;-74
2021/08/29 08:25:15;;;;;;;4.50;2.70;;;11.90;98.00;;;;;;5074598;28;20091;-74
2021/08/29 08:27:40;;;;;;;5.68;3.60;;;11.90;98.00;;;;;;5075992;28;20108;-74
2021/08/29 08:30:07;;;;;;;6.30;2.97;;;12.00;98.00;;;;;;5079659;28;20120;-74
2021/08/29 08:32:33;;;;;;;5.43;3.53;;;11.90;98.00;;;;;;5066590;28;20092;-74
2021/08/29 08:34:58;;;;;;;5.63;3.28;;;11.90;98.00;;;;;;5081041;28;20107;-74
2021/08/29 08:37:24;;;;;;;5.03;2.85;;;11.90;98.00;;;;;;5078171;28;20036;-74
2021/08/29 08:39:50;;;;;;;6.40;3.92;;;11.90;98.00;;;;;;5069660;28;20021;-73
2021/08/29 08:42:16;;;;;;;13.82;6.72;;;11.90;98.00;;;;;;5059588;28;20025;-74
2021/08/29 08:44:47;;;;;;;13.35;6.95;;;11.90;98.00;;;;;;5065918;28;20028;-74
2021/08/29 08:47:16;;;;;;;10.35;6.25;;;11.90;97.60;;;;;;5073304;28;20029;-74
2021/08/29 08:49:43;;;;;;;9.82;6.70;;;11.90;97.90;;;;;;5062930;28;20017;-74
2021/08/29 08:52:16;;;;;;;6.35;4.40;;;12.00;97.30;;;;;;5063367;28;20017;-74
2021/08/29 08:54:43;;;;;;;6.05;3.75;;;12.00;97.20;;;;;;5058361;28;20422;-74
2021/08/29 08:57:09;;;;;;;9.48;4.40;;;12.00;97.10;;;;;;5075215;28;20028;-74
2021/08/29 08:59:35;;;;;;;7.70;4.40;;;12.10;97.10;;;;;;5065990;28;20108;-74
2021/08/29 09:02:01;;;;;;;9.43;5.75;;;12.10;97.10;;;;;;5062997;28;20036;-74
2021/08/29 09:04:27;;;;;;;7.68;5.05;;;12.10;97.20;;;;;;5069409;28;20029;-74
2021/08/29 09:06:54;;;;;;;10.30;6.43;;;12.10;96.50;;;;;;5064579;28;20055;-74
2021/08/29 09:09:19;;;;;;;14.07;8.70;;;12.20;96.70;;;;;;5068058;28;20029;-74
2021/08/29 09:11:45;;;;;;;11.35;7.07;;;12.20;96.80;;;;;;5060269;28;20033;-73
2021/08/29 09:14:11;;;;;;;6.93;4.35;;;12.20;96.40;;;;;;5064206;28;20338;-74
2021/08/29 09:16:36;;;;;;;11.00;4.60;;;12.30;96.20;;;;;;5062014;28;20095;-74
2021/08/29 09:19:04;;;;;;;10.50;6.28;;;12.40;96.20;;;;;;5075321;28;20025;-74
2021/08/29 09:21:34;;;;;;;6.68;4.10;;;12.40;96.90;;;;;;5060162;28;20020;-74
2021/08/29 09:24:06;;;;;;;6.97;4.93;;;12.40;97.20;;;;;;5053183;28;20075;-74
2021/08/29 09:26:39;;;;;;;7.45;4.70;;;12.40;96.80;;;;;;5059197;28;20427;-74
2021/08/29 09:29:07;;;;;;;7.43;4.72;;;12.50;96.70;;;;;;5067859;28;20314;-73
2021/08/29 09:31:46;;;;;;;7.85;4.07;;;12.50;96.90;;;;;;5077346;28;20116;-74
2021/08/29 09:34:13;;;;;;;6.28;3.72;;;12.60;96.50;;;;;;5058570;28;20029;-73
2021/08/29 09:36:39;;;;;;;6.55;3.58;;;12.60;96.70;;;;;;5065501;28;20040;-73
2021/08/29 09:39:11;;;;;;;6.18;3.70;;;12.60;96.80;;;;;;5063637;28;20025;-74
2021/08/29 09:41:43;;;;;;;6.18;3.45;;;12.60;96.80;;;;;;5062647;28;20052;-75
2021/08/29 09:44:09;;;;;;;6.03;3.75;;;12.70;96.50;;;;;;5069629;28;20033;-74
2021/08/29 09:46:58;;;;;;;5.80;3.40;;;12.90;96.70;;;;;;5069102;28;20075;-74
2021/08/29 09:49:35;;;;;;;5.13;3.67;;;13.10;96.40;;;;;;5057761;28;20029;-73
2021/08/29 09:52:03;;;;;;;6.00;3.60;;;13.10;97.40;;;;;;5067182;28;20429;-73
2021/08/29 09:54:37;;;;;;;4.30;2.47;;;13.10;97.90;;;;;;5069279;28;20040;-74
2021/08/29 09:57:19;;;;;;;5.47;2.50;;;13.20;98.00;;;;;;5068684;28;20360;-73
2021/08/29 09:59:44;;;;;;;5.50;2.95;;;13.30;98.00;;;;;;5064389;28;20421;-74
2021/08/29 10:02:12;;;;;;;4.95;2.88;;;13.30;98.00;;;;;;5066086;28;20024;-73
2021/08/29 10:04:39;;;;;;;4.32;2.70;;;13.30;98.00;;;;;;5059171;28;20417;-73
2021/08/29 10:07:18;;;;;;;4.55;2.90;;;13.40;98.00;;;;;;5061352;28;20071;-73
2021/08/29 10:09:47;;;;;;;5.75;3.10;;;13.40;98.00;;;;;;5067100;28;20385;-73
2021/08/29 10:12:15;;;;;;;4.82;2.75;;;13.40;98.00;;;;;;5066313;28;20105;-73
2021/08/29 10:14:42;;;;;;;7.32;3.15;;;13.40;98.00;;;;;;5066496;28;20059;-73
2021/08/29 10:17:09;;;;;;;4.90;2.88;;;13.40;98.00;;;;;;5078327;28;20422;-74
2021/08/29 10:19:38;;;;;;;6.38;3.05;;;13.30;98.00;;;;;;5075431;28;20317;-74
2021/08/29 10:22:04;;;;;;;7.13;3.92;;;13.30;98.00;;;;;;5066001;28;20234;-74
2021/08/29 10:24:32;;;;;;;4.85;3.05;;;13.30;98.00;;;;;;5056507;28;20024;-74
2021/08/29 10:27:04;;;;;;;6.05;3.30;;;13.40;98.00;;;;;;5057648;28;20312;-73
2021/08/29 10:29:38;;;;;;;5.68;3.33;;;13.30;98.00;;;;;;5072430;28;20147;-73
2021/08/29 10:32:13;;;;;;;6.97;4.07;;;13.30;98.00;;;;;;5056612;28;20348;-74
2021/08/29 10:34:39;;;;;;;6.63;3.33;;;13.40;98.00;;;;;;5057564;28;20033;-74
2021/08/29 10:37:05;;;;;;;6.18;3.35;;;13.50;98.00;;;;;;5057436;28;20021;-73
2021/08/29 10:39:31;;;;;;;6.93;4.07;;;13.60;98.00;;;;;;5075767;28;20474;-73
2021/08/29 10:42:02;;;;;;;7.95;4.55;;;13.70;98.00;;;;;;5076413;28;20413;-73
2021/08/29 10:44:28;;;;;;;6.00;3.95;;;13.70;98.00;;;;;;5077028;28;20502;-73
2021/08/29 10:46:55;;;;;;;9.02;5.43;;;13.70;98.00;;;;;;5073582;28;20417;-73
2021/08/29 10:49:22;;;;;;;6.65;4.18;;;14.00;98.00;;;;;;5056307;28;20024;-73
2021/08/29 10:51:51;;;;;;;8.82;4.88;;;14.30;98.00;;;;;;5057105;28;20036;-73
2021/08/29 10:54:17;;;;;;;8.90;5.53;;;14.40;98.00;;;;;;5064775;28;20029;-73
2021/08/29 10:56:42;;;;;;;8.60;5.72;;;14.20;98.00;;;;;;5074010;28;20013;-73
2021/08/29 10:59:08;;;;;;;7.63;5.45;;;14.10;98.00;;;;;;5058412;28;20032;-73
2021/08/29 11:01:38;;;;;;;12.55;6.88;;;13.90;98.00;;;;;;5071023;28;20039;-73
2021/08/29 11:04:28;;;;;;;6.40;4.20;;;13.90;98.00;;;;;;5075277;28;20028;-73
2021/08/29 11:06:56;;;;;;;7.85;5.40;;;13.90;98.00;;;;;;5076215;28;20037;-73
2021/08/29 11:09:34;;;;;;;10.05;6.70;;;13.80;98.00;;;;;;5065229;28;20021;-73
2021/08/29 11:12:06;;;;;;;8.95;6.18;;;13.80;98.00;;;;;;5075693;28;20024;-73
2021/08/29 11:14:40;;;;;;;8.40;5.97;;;13.60;98.00;;;;;;5070324;28;20043;-72
2021/08/29 11:17:09;;;;;;;8.70;5.57;;;13.50;98.00;;;;;;5062178;28;20413;-73
2021/08/29 11:19:40;;;;;;;8.68;5.70;;;13.30;98.00;;;;;;5062513;28;20044;-73
2021/08/29 11:22:10;;;;;;;22.73;10.63;;;13.20;98.00;;;;;;5062673;28;20107;-73
2021/08/29 11:24:56;;;;;;;10.05;6.70;;;13.20;98.00;;;;;;5066764;28;20063;-73
2021/08/29 11:27:33;;;;;;;15.32;9.35;;;13.30;98.00;;;;;;5052459;28;20287;-73
2021/08/29 11:30:29;;;;;;;10.88;7.00;;;13.20;98.00;;;;;;5049917;28;20112;-73
2021/08/29 11:32:57;;;;;;;9.40;6.93;;;13.20;98.00;;;;;;5044443;28;20107;-73
2021/08/29 11:35:25;;;;;;;9.30;6.43;;;13.10;98.00;;;;;;5049609;28;20028;-73
2021/08/29 11:38:22;;;;;;;9.93;7.07;;;13.00;98.00;;;;;;5049553;28;20021;-73
2021/08/29 11:41:17;;;;;;;13.95;7.95;;;12.90;98.00;;;;;;5022321;28;20032;-73
2021/08/29 11:43:44;;;;;;;12.90;8.63;;;12.90;98.00;;;;;;5069110;28;20051;-73
2021/08/29 11:46:19;;;;;;;14.15;8.60;;;12.90;98.00;;;;;;5068519;28;20065;-73
2021/08/29 11:48:55;;;;;;;;;;;12.80;98.00;;;;;;5055646;28;20052;-73
2021/08/29 11:51:28;;;;;;;12.55;8.10;;;12.80;98.00;;;;;;5056290;28;19915;-73
2021/08/29 11:53:54;;;;;;;13.35;8.45;;;12.80;98.00;;;;;;5070246;28;20032;-73
2021/08/29 11:56:27;;;;;;;14.68;9.02;;;12.70;98.00;;;;;;5075149;28;20024;-73
2021/08/29 11:58:53;;;;;;;14.25;10.02;;;12.80;97.80;;;;;;5062483;28;20043;-73
2021/08/29 12:01:19;;;;;;;16.83;9.00;;;12.90;97.60;;;;;;5062688;28;20108;-73
2021/08/29 12:03:45;;;;;;;12.75;9.10;;;12.90;98.00;;;;;;5072285;28;20032;-73
2021/08/29 12:06:47;;;;;;;11.70;7.97;;;12.90;97.90;;;;;;5074783;28;20041;-73
2021/08/29 12:09:36;;;;;;;15.68;8.82;;;13.00;98.00;;;;;;5054439;28;20091;-73
2021/08/29 12:12:02;;;;;;;12.23;8.10;;;13.00;98.00;;;;;;5072918;28;20036;-72
2021/08/29 12:14:30;;;;;;;12.57;8.68;;;13.20;98.00;;;;;;5059116;28;20036;-73
2021/08/29 12:17:01;;;;;;;11.15;7.63;;;13.10;98.00;;;;;;5075598;28;20036;-73
2021/08/29 12:19:36;;;;;;;14.52;8.32;;;13.10;98.00;;;;;;5071039;28;20433;-72
2021/08/29 12:22:05;;;;;;;13.73;8.52;;;13.00;98.00;;;;;;5058637;28;20057;-73
2021/08/29 12:24:36;;;;;;;11.82;6.95;;;13.10;98.00;;;;;;5073093;28;20032;-73
2021/08/29 12:27:09;;;;;;;12.65;6.57;;;13.40;98.00;;;;;;5069664;28;20083;-73
2021/08/29 12:29:51;;;;;;;12.60;6.65;;;13.40;98.00;;;;;;5068267;28;20420;-73
2021/08/29 12:32:22;;;;;;;8.90;6.32;;;13.40;98.00;;;;;;5057253;28;20028;-73
2021/08/29 12:35:06;;;;;;;10.75;7.22;;;13.40;98.00;;;;;;5059103;28;20047;-73
2021/08/29 12:37:46;;;;;;;14.82;8.57;;;13.30;98.00;;;;;;5075814;28;20024;-73
2021/08/29 12:40:15;;;;;;;17.63;10.18;;;13.20;98.00;;;;;;5067185;28;20033;-73
2021/08/29 12:42:43;;;;;;;18.95;9.70;;;13.20;98.00;;;;;;5075869;28;20017;-73
2021/08/29 12:45:11;;;;;;;18.15;8.52;;;13.10;98.00;;;;;;5068708;28;20024;-72
2021/08/29 12:47:39;;;;;;;15.38;8.93;;;13.20;98.00;;;;;;5064345;28;20039;-72
2021/08/29 12:50:07;;;;;;;12.43;8.10;;;13.20;98.00;;;;;;5079925;28;20037;-73